Time;durP1;ratioP1;P1;durP2;ratioP2;P2;SDS_P1;SDS_P2;PMS_P1;PMS_P2;Temp;Humidity;BMP_temperature;BMP_pressure;BME280_temperature;BME280_humidity;BME280_pressure;Samples;Min_cycle;Max_cycle;Signal;HPM_P1;HPM_P2
2022/06/03 00:02:09;;;;;;;2.08;1.50;;;;;;;;;;5037010;28;20681;-81
2022/06/03 00:04:47;;;;;;;1.75;1.58;;;;;;;;;;5048382;28;20209;-82
2022/06/03 00:07:23;;;;;;;2.30;1.55;;;;;;;;;;5045952;28;20595;-81
2022/06/03 00:10:15;;;;;;;1.25;1.15;;;;;;;;;;5046674;28;20200;-81
2022/06/03 00:12:55;;;;;;;1.52;1.42;;;;;;;;;;5040121;28;20191;-81
2022/06/03 00:15:31;;;;;;;1.50;1.40;;;;;;;;;;5043659;28;20651;-81
2022/06/03 00:18:09;;;;;;;1.40;1.30;;;;;;;;;;5045864;28;20598;-80
2022/06/03 00:20:41;;;;;;;1.45;1.23;;;;;;;;;;5043690;28;20222;-81
2022/06/03 00:23:26;;;;;;;1.55;1.45;;;;;;;;;;5035827;28;20199;-81
2022/06/03 00:26:01;;;;;;;1.85;1.60;;;;;;;;;;5043555;28;20203;-81
2022/06/03 00:28:43;;;;;;;1.30;1.02;;;;;;;;;;5041219;28;20215;-81
2022/06/03 00:31:17;;;;;;;1.60;1.40;;;;;;;;;;5036487;28;20550;-81
2022/06/03 00:34:10;;;;;;;1.50;1.33;;;;;;;;;;5047897;28;20195;-81
2022/06/03 00:36:47;;;;;;;1.52;1.05;;;;;;;;;;5051081;28;20206;-81
2022/06/03 00:39:24;;;;;;;1.52;1.42;;;;;;;;;;5046647;28;20194;-81
2022/06/03 00:41:56;;;;;;;1.60;1.50;;;;;;;;;;5045984;28;20237;-83
2022/06/03 00:44:33;;;;;;;1.70;1.60;;;;;;;;;;5036428;28;20203;-83
2022/06/03 00:47:05;;;;;;;4.07;1.70;;;;;;;;;;5046157;28;20215;-83
2022/06/03 00:49:42;;;;;;;1.65;1.33;;;;;;;;;;5044157;28;20570;-83
2022/06/03 00:52:26;;;;;;;1.50;1.40;;;;;;;;;;5035984;28;20203;-83
2022/06/03 00:55:03;;;;;;;2.50;1.73;;;;;;;;;;5047193;28;20199;-83
2022/06/03 00:57:46;;;;;;;1.83;1.58;;;;;;;;;;5050907;28;20191;-83
2022/06/03 01:00:19;;;;;;;1.98;1.80;;;;;;;;;;5034508;28;20242;-83
2022/06/03 01:02:52;;;;;;;2.05;1.55;;;;;;;;;;5047149;28;20652;-83
2022/06/03 01:05:26;;;;;;;1.92;1.70;;;;;;;;;;5051485;28;20692;-82
2022/06/03 01:07:58;;;;;;;3.00;1.90;;;;;;;;;;5035117;28;20215;-81
2022/06/03 01:10:34;;;;;;;1.70;1.60;;;;;;;;;;5051295;28;20518;-81
2022/06/03 01:13:13;;;;;;;2.03;1.70;;;;;;;;;;5039603;28;20195;-83
2022/06/03 01:15:47;;;;;;;2.03;1.48;;;;;;;;;;5037878;28;20206;-81
2022/06/03 01:18:20;;;;;;;1.70;1.60;;;;;;;;;;5050050;28;20199;-81
2022/06/03 01:20:58;;;;;;;2.47;1.90;;;;;;;;;;5059007;28;20201;-85
2022/06/03 01:23:52;;;;;;;1.75;1.63;;;;;;;;;;5037366;28;20191;-83
2022/06/03 01:26:32;;;;;;;3.25;1.77;;;;;;;;;;5037673;28;20482;-83
2022/06/03 01:29:18;;;;;;;2.55;1.67;;;;;;;;;;5044615;28;20203;-82
2022/06/03 01:32:15;;;;;;;1.65;1.55;;;;;;;;;;5037809;28;20297;-83
2022/06/03 01:34:49;;;;;;;1.80;1.70;;;;;;;;;;5044722;28;20304;-83
2022/06/03 01:37:20;;;;;;;2.50;1.95;;;;;;;;;;5051577;28;20650;-83
2022/06/03 01:40:01;;;;;;;1.77;1.58;;;;;;;;;;5047759;28;20491;-82
2022/06/03 01:42:46;;;;;;;1.98;1.83;;;;;;;;;;5038742;28;20214;-81
2022/06/03 01:45:23;;;;;;;1.58;1.45;;;;;;;;;;5041888;28;20199;-83
2022/06/03 01:47:58;;;;;;;1.75;1.65;;;;;;;;;;5054345;28;20222;-84
2022/06/03 01:50:35;;;;;;;2.00;1.80;;;;;;;;;;5046622;28;20723;-84
2022/06/03 01:53:16;;;;;;;1.58;1.48;;;;;;;;;;5037777;28;20191;-83
2022/06/03 01:56:03;;;;;;;1.67;1.45;;;;;;;;;;5041993;28;20206;-84
2022/06/03 01:58:49;;;;;;;1.30;1.20;;;;;;;;;;5045804;28;20187;-81
2022/06/03 02:01:31;;;;;;;1.60;1.50;;;;;;;;;;5033927;28;20286;-80
2022/06/03 02:04:05;;;;;;;1.52;1.42;;;;;;;;;;5048534;28;20210;-82
2022/06/03 02:06:50;;;;;;;2.55;1.55;;;;;;;;;;5048709;28;20194;-81
2022/06/03 02:09:47;;;;;;;1.70;1.60;;;;;;;;;;5046982;28;20195;-82
2022/06/03 02:12:28;;;;;;;1.65;1.55;;;;;;;;;;5018188;28;20307;-80
2022/06/03 02:15:12;;;;;;;1.45;1.25;;;;;;;;;;5050078;28;20543;-80
2022/06/03 02:20:58;;;;;;;1.58;1.48;;;;;;;;;;5042764;28;20668;-80
2022/06/03 02:23:33;;;;;;;1.80;1.70;;;;;;;;;;5046429;28;20218;-80
2022/06/03 02:26:16;;;;;;;2.10;1.80;;;;;;;;;;5053652;28;20222;-80
2022/06/03 02:30:24;;;;;;;2.55;2.20;;;;;;;;;;5042772;28;20219;-80
2022/06/03 02:31:45;;;;;;;2.35;2.15;;;;;;;;;;5039844;28;20207;-81
2022/06/03 02:34:23;;;;;;;2.17;1.50;;;;;;;;;;5052857;28;20191;-80
2022/06/03 02:37:11;;;;;;;1.90;1.25;;;;;;;;;;5041184;28;20476;-80
2022/06/03 02:40:08;;;;;;;2.20;2.00;;;;;;;;;;5047231;28;20191;-80
2022/06/03 02:42:59;;;;;;;2.40;1.70;;;;;;;;;;4990053;28;20702;-80
2022/06/03 02:45:48;;;;;;;1.60;1.40;;;;;;;;;;4983801;28;20205;-80
2022/06/03 02:48:39;;;;;;;2.03;1.83;;;;;;;;;;5044034;28;20234;-79
2022/06/03 02:51:24;;;;;;;1.80;1.70;;;;;;;;;;5044060;28;20191;-79
2022/06/03 02:54:24;;;;;;;1.67;1.58;;;;;;;;;;5053472;28;20203;-78
2022/06/03 02:56:55;;;;;;;3.08;2.40;;;;;;;;;;5043675;28;20206;-80
2022/06/03 02:59:46;;;;;;;2.10;1.90;;;;;;;;;;5049855;28;20641;-78
2022/06/03 03:02:24;;;;;;;1.80;1.70;;;;;;;;;;5025541;28;20204;-79
2022/06/03 03:04:59;;;;;;;2.75;1.83;;;;;;;;;;5045567;28;20662;-80
2022/06/03 03:07:42;;;;;;;2.45;2.00;;;;;;;;;;5052417;28;20226;-78
2022/06/03 03:10:26;;;;;;;2.40;2.20;;;;;;;;;;5038288;28;20208;-80
2022/06/03 03:13:14;;;;;;;3.85;2.28;;;;;;;;;;5038980;28;20199;-78
2022/06/03 03:16:00;;;;;;;2.60;2.03;;;;;;;;;;5041370;28;20579;-78
2022/06/03 03:18:35;;;;;;;2.22;2.03;;;;;;;;;;5048915;28;20198;-80
2022/06/03 03:21:15;;;;;;;2.22;2.00;;;;;;;;;;5053725;28;20323;-78
2022/06/03 03:24:05;;;;;;;2.53;1.80;;;;;;;;;;5043253;28;20194;-79
2022/06/03 03:26:41;;;;;;;2.30;2.08;;;;;;;;;;5065333;28;20186;-79
2022/06/03 03:29:25;;;;;;;2.33;2.00;;;;;;;;;;5073852;28;20209;-79
2022/06/03 03:32:09;;;;;;;3.25;2.55;;;;;;;;;;5046164;28;20190;-78
2022/06/03 03:34:55;;;;;;;2.55;2.10;;;;;;;;;;5048334;28;20599;-78
2022/06/03 03:37:33;;;;;;;2.05;1.95;;;;;;;;;;5043202;28;20562;-78
2022/06/03 03:40:19;;;;;;;2.10;1.90;;;;;;;;;;5052309;28;20551;-77
2022/06/03 03:43:06;;;;;;;3.25;2.95;;;;;;;;;;5036227;28;20702;-77
2022/06/03 03:46:01;;;;;;;3.83;2.70;;;;;;;;;;5040012;28;20588;-77
2022/06/03 03:48:49;;;;;;;2.38;1.77;;;;;;;;;;5023510;28;20591;-79
2022/06/03 03:51:29;;;;;;;1.77;1.67;;;;;;;;;;5043307;28;20709;-77
2022/06/03 03:54:19;;;;;;;2.28;2.05;;;;;;;;;;5052091;28;20237;-78
2022/06/03 03:57:01;;;;;;;2.92;2.53;;;;;;;;;;5057121;28;20939;-78
2022/06/03 03:59:40;;;;;;;2.65;2.38;;;;;;;;;;5044612;28;20662;-79
2022/06/03 04:02:31;;;;;;;4.35;2.20;;;;;;;;;;5050060;28;20191;-80
2022/06/03 04:05:16;;;;;;;2.97;1.83;;;;;;;;;;5047854;28;20203;-82
2022/06/03 04:08:04;;;;;;;3.22;2.30;;;;;;;;;;5043298;28;20629;-80
2022/06/03 04:10:39;;;;;;;2.65;2.33;;;;;;;;;;5051744;28;20207;-80
2022/06/03 04:13:16;;;;;;;2.60;2.40;;;;;;;;;;5038482;28;20195;-80
2022/06/03 04:16:03;;;;;;;2.40;2.20;;;;;;;;;;5048702;28;20334;-80
2022/06/03 04:18:41;;;;;;;2.42;2.20;;;;;;;;;;5049427;28;20274;-80
2022/06/03 04:21:15;;;;;;;1.95;1.70;;;;;;;;;;5044532;28;20608;-80
2022/06/03 04:23:57;;;;;;;3.45;2.25;;;;;;;;;;5041495;28;20565;-81
2022/06/03 04:26:46;;;;;;;2.60;2.15;;;;;;;;;;5038673;28;20211;-80
2022/06/03 04:29:37;;;;;;;2.53;2.25;;;;;;;;;;5043388;28;20213;-80
2022/06/03 04:32:24;;;;;;;2.47;2.00;;;;;;;;;;5037278;28;20202;-80
2022/06/03 04:35:15;;;;;;;2.20;1.95;;;;;;;;;;5051497;28;20666;-80
2022/06/03 04:38:01;;;;;;;2.33;1.83;;;;;;;;;;5039640;28;20213;-81
2022/06/03 04:40:48;;;;;;;1.95;1.85;;;;;;;;;;5041679;28;20196;-79
2022/06/03 04:43:45;;;;;;;2.47;2.08;;;;;;;;;;5036913;28;20682;-79
2022/06/03 04:46:31;;;;;;;3.13;2.22;;;;;;;;;;5035855;28;20200;-79
2022/06/03 04:49:17;;;;;;;1.90;1.80;;;;;;;;;;5045005;28;20682;-78
2022/06/03 04:52:08;;;;;;;2.10;1.70;;;;;;;;;;5049837;28;20194;-78
2022/06/03 04:54:54;;;;;;;2.55;2.35;;;;;;;;;;5039781;28;20207;-80
2022/06/03 04:57:54;;;;;;;2.00;1.90;;;;;;;;;;5046934;28;20202;-79
2022/06/03 05:00:42;;;;;;;2.58;2.13;;;;;;;;;;5040263;28;20199;-80
2022/06/03 05:03:33;;;;;;;2.60;1.98;;;;;;;;;;5042068;28;20203;-80
2022/06/03 05:06:15;;;;;;;1.80;1.70;;;;;;;;;;5034225;28;20222;-80
2022/06/03 05:09:08;;;;;;;2.78;2.53;;;;;;;;;;5053630;28;20222;-79
2022/06/03 05:11:57;;;;;;;1.80;1.58;;;;;;;;;;5044702;28;20199;-80
2022/06/03 05:14:46;;;;;;;2.25;1.92;;;;;;;;;;5049259;28;20206;-79
2022/06/03 05:17:26;;;;;;;2.95;2.10;;;;;;;;;;5044338;28;20610;-79
2022/06/03 05:20:08;;;;;;;2.80;2.33;;;;;;;;;;5039097;28;20647;-80
2022/06/03 05:22:53;;;;;;;1.70;1.55;;;;;;;;;;5045738;28;20738;-79
2022/06/03 05:25:39;;;;;;;1.70;1.60;;;;;;;;;;5044355;28;20197;-80
2022/06/03 05:28:24;;;;;;;2.28;2.08;;;;;;;;;;5045581;28;20207;-79
2022/06/03 05:31:09;;;;;;;2.25;2.05;;;;;;;;;;5046542;28;20199;-79
2022/06/03 05:33:55;;;;;;;2.33;2.13;;;;;;;;;;5047679;28;20194;-79
2022/06/03 05:36:36;;;;;;;2.10;1.90;;;;;;;;;;5036350;28;20199;-79
2022/06/03 05:39:21;;;;;;;1.85;1.50;;;;;;;;;;5043008;28;20681;-79
2022/06/03 05:44:54;;;;;;;2.45;1.60;;;;;;;;;;5023512;28;20780;-79
2022/06/03 05:47:25;;;;;;;3.80;1.70;;;;;;;;;;5040753;28;20273;-78
2022/06/03 05:49:58;;;;;;;1.40;1.30;;;;;;;;;;5049210;28;20219;-79
2022/06/03 05:52:33;;;;;;;2.33;1.60;;;;;;;;;;5030920;28;20199;-79
2022/06/03 05:55:07;;;;;;;2.55;1.50;;;;;;;;;;5046839;28;20200;-79
2022/06/03 05:57:38;;;;;;;7.13;1.77;;;;;;;;;;5044890;28;20202;-80
2022/06/03 06:00:16;;;;;;;2.05;1.80;;;;;;;;;;5045595;28;20204;-82
2022/06/03 06:02:46;;;;;;;1.13;1.00;;;;;;;;;;5069434;28;20213;-80
2022/06/03 06:05:21;;;;;;;1.42;1.33;;;;;;;;;;5048461;28;20214;-81
2022/06/03 06:07:52;;;;;;;1.70;1.40;;;;;;;;;;5043627;28;20190;-82
2022/06/03 06:10:26;;;;;;;2.28;1.45;;;;;;;;;;5049396;28;20195;-80
2022/06/03 06:12:59;;;;;;;2.20;1.55;;;;;;;;;;5040717;28;20190;-82
2022/06/03 06:15:41;;;;;;;1.38;1.27;;;;;;;;;;5031041;28;20188;-81
2022/06/03 06:18:12;;;;;;;1.65;1.20;;;;;;;;;;5034418;28;20600;-82
2022/06/03 06:20:56;;;;;;;1.73;1.40;;;;;;;;;;5040855;28;20203;-79
2022/06/03 06:23:32;;;;;;;1.40;1.25;;;;;;;;;;5043224;28;20195;-79
2022/06/03 06:26:19;;;;;;;2.40;1.48;;;;;;;;;;5049119;28;20468;-79
2022/06/03 06:29:00;;;;;;;1.58;1.20;;;;;;;;;;5047895;28;20222;-80
2022/06/03 06:31:44;;;;;;;1.75;1.65;;;;;;;;;;5045799;28;20639;-80
2022/06/03 06:34:21;;;;;;;2.95;1.42;;;;;;;;;;5049961;28;20199;-79
2022/06/03 06:37:02;;;;;;;1.48;1.38;;;;;;;;;;5048625;28;20207;-80
2022/06/03 06:39:39;;;;;;;2.53;1.10;;;;;;;;;;5044678;28;20548;-78
2022/06/03 06:42:15;;;;;;;1.75;1.42;;;;;;;;;;5039949;28;20589;-78
2022/06/03 06:44:51;;;;;;;1.70;1.40;;;;;;;;;;5036048;28;20669;-79
2022/06/03 06:47:22;;;;;;;1.40;1.20;;;;;;;;;;5050266;28;20190;-79
2022/06/03 06:49:53;;;;;;;2.22;1.70;;;;;;;;;;5045639;28;20212;-79
2022/06/03 06:52:41;;;;;;;2.95;1.83;;;;;;;;;;5041850;28;20196;-80
2022/06/03 06:55:11;;;;;;;2.40;1.40;;;;;;;;;;5046643;28;20245;-84
2022/06/03 06:57:41;;;;;;;2.05;1.50;;;;;;;;;;5059091;28;20245;-84
2022/06/03 07:00:17;;;;;;;2.75;1.42;;;;;;;;;;5049063;28;20199;-84
2022/06/03 07:02:46;;;;;;;3.05;1.75;;;;;;;;;;5049964;28;20285;-84
2022/06/03 07:05:18;;;;;;;2.00;1.42;;;;;;;;;;5039434;28;20595;-84
2022/06/03 07:07:47;;;;;;;2.15;1.30;;;;;;;;;;5041301;28;20203;-84
2022/06/03 07:10:18;;;;;;;2.75;1.42;;;;;;;;;;5035436;28;20228;-84
2022/06/03 07:12:49;;;;;;;1.40;1.30;;;;;;;;;;5036228;28;20207;-81
2022/06/03 07:15:21;;;;;;;1.52;1.20;;;;;;;;;;5053060;28;20694;-83
2022/06/03 07:20:45;;;;;;;1.45;0.90;;;;;;;;;;5041501;28;20207;-82
2022/06/03 07:23:15;;;;;;;1.40;1.17;;;;;;;;;;5041645;28;20195;-82
2022/06/03 07:25:44;;;;;;;1.52;1.38;;;;;;;;;;5051479;28;20193;-81
2022/06/03 07:28:22;;;;;;;1.65;1.17;;;;;;;;;;5048484;28;20669;-82
2022/06/03 07:30:54;;;;;;;1.13;1.00;;;;;;;;;;5042596;28;20292;-81
2022/06/03 07:33:36;;;;;;;2.90;1.27;;;;;;;;;;5044522;28;20209;-81
2022/06/03 07:36:08;;;;;;;2.55;1.30;;;;;;;;;;5045015;28;20683;-80
2022/06/03 07:38:39;;;;;;;1.80;1.40;;;;;;;;;;5054842;28;20565;-80
2022/06/03 07:41:08;;;;;;;1.42;1.20;;;;;;;;;;5045241;28;20803;-80
2022/06/03 07:43:39;;;;;;;1.67;1.10;;;;;;;;;;5046233;28;20208;-82
2022/06/03 07:46:10;;;;;;;1.63;1.10;;;;;;;;;;5042110;28;20198;-80
2022/06/03 07:48:38;;;;;;;1.90;1.20;;;;;;;;;;5052486;28;20205;-80
2022/06/03 07:51:09;;;;;;;1.50;1.40;;;;;;;;;;5044885;28;20479;-81
2022/06/03 07:53:41;;;;;;;1.37;1.27;;;;;;;;;;5046735;28;20519;-80
2022/06/03 07:56:09;;;;;;;1.87;1.40;;;;;;;;;;5047860;28;20468;-80
2022/06/03 07:58:37;;;;;;;1.30;1.20;;;;;;;;;;5050881;28;21016;-80
2022/06/03 08:01:05;;;;;;;1.37;1.13;;;;;;;;;;5050453;28;20523;-80
2022/06/03 08:03:37;;;;;;;3.90;1.50;;;;;;;;;;5052972;28;20449;-80
2022/06/03 08:06:05;;;;;;;2.37;2.07;;;;;;;;;;5042486;28;20495;-82
2022/06/03 08:11:25;;;;;;;2.50;1.60;;;;;;;;;;5040232;28;20444;-83
2022/06/03 08:13:54;;;;;;;1.20;1.10;;;;;;;;;;5038040;28;20461;-87
2022/06/03 08:16:25;;;;;;;3.88;1.58;;;;;;;;;;5043956;28;20456;-83
2022/06/03 08:18:56;;;;;;;2.20;1.30;;;;;;;;;;5051738;28;20699;-82
2022/06/03 08:21:27;;;;;;;1.43;1.17;;;;;;;;;;5043211;28;20975;-82
2022/06/03 08:23:55;;;;;;;1.30;1.15;;;;;;;;;;5047443;28;20464;-81
2022/06/03 08:26:23;;;;;;;1.37;1.27;;;;;;;;;;5033656;28;20206;-82
2022/06/03 08:28:53;;;;;;;2.10;1.17;;;;;;;;;;5049538;28;20456;-81
2022/06/03 08:31:23;;;;;;;2.60;1.30;;;;;;;;;;5038932;28;20461;-82
2022/06/03 08:33:51;;;;;;;1.30;1.20;;;;;;;;;;5049791;28;22764;-81
2022/06/03 08:36:22;;;;;;;1.67;1.27;;;;;;;;;;5046709;28;20475;-81
2022/06/03 08:38:53;;;;;;;1.20;1.07;;;;;;;;;;5051469;28;20841;-82
2022/06/03 08:41:35;;;;;;;3.30;1.60;;;;;;;;;;5051926;28;20479;-81
2022/06/03 08:44:09;;;;;;;1.30;1.20;;;;;;;;;;5041893;28;20515;-82
2022/06/03 08:46:38;;;;;;;1.50;1.33;;;;;;;;;;5031888;28;20465;-81
2022/06/03 08:49:07;;;;;;;1.40;1.13;;;;;;;;;;5031421;28;20474;-81
2022/06/03 08:51:41;;;;;;;1.13;0.93;;;;;;;;;;5039005;28;20465;-81
2022/06/03 08:54:10;;;;;;;1.60;1.00;;;;;;;;;;5038921;28;20848;-81
2022/06/03 08:56:39;;;;;;;1.70;1.60;;;;;;;;;;5043439;28;20940;-82
2022/06/03 08:59:10;;;;;;;1.50;1.40;;;;;;;;;;5041065;28;20450;-81
2022/06/03 09:01:39;;;;;;;1.87;1.53;;;;;;;;;;5048961;28;20448;-82
2022/06/03 09:04:10;;;;;;;1.40;1.20;;;;;;;;;;5052270;28;20484;-82
2022/06/03 09:06:43;;;;;;;1.93;1.60;;;;;;;;;;5043002;28;20547;-81
2022/06/03 09:09:14;;;;;;;2.40;1.40;;;;;;;;;;5042924;28;20526;-81
2022/06/03 09:11:44;;;;;;;2.30;1.20;;;;;;;;;;5048945;28;20449;-81
2022/06/03 09:14:13;;;;;;;1.33;1.00;;;;;;;;;;5040511;28;20534;-81
2022/06/03 09:16:41;;;;;;;1.70;1.10;;;;;;;;;;5034252;28;20857;-80
2022/06/03 09:19:12;;;;;;;2.17;1.20;;;;;;;;;;5050483;28;20440;-80
2022/06/03 09:21:43;;;;;;;3.83;1.63;;;;;;;;;;5043862;28;20453;-81
2022/06/03 09:24:13;;;;;;;3.00;1.40;;;;;;;;;;5045467;28;20825;-81
2022/06/03 09:26:42;;;;;;;9.70;1.90;;;;;;;;;;5054148;28;20511;-83
2022/06/03 09:29:11;;;;;;;2.37;1.40;;;;;;;;;;5042239;28;20453;-81
2022/06/03 09:31:39;;;;;;;1.33;1.20;;;;;;;;;;5040520;28;20480;-81
2022/06/03 09:34:08;;;;;;;3.30;1.80;;;;;;;;;;5049128;28;20544;-82
2022/06/03 09:36:35;;;;;;;1.80;1.10;;;;;;;;;;5049881;28;20498;-81
2022/06/03 09:39:05;;;;;;;1.23;1.13;;;;;;;;;;5049306;28;20940;-82
2022/06/03 09:41:36;;;;;;;1.43;1.07;;;;;;;;;;5050055;28;20880;-80
2022/06/03 09:44:04;;;;;;;1.40;1.30;;;;;;;;;;5046194;28;20993;-82
2022/06/03 09:46:32;;;;;;;2.13;1.30;;;;;;;;;;5049382;28;20479;-81
2022/06/03 09:48:59;;;;;;;1.40;1.30;;;;;;;;;;5065745;28;20464;-81
2022/06/03 09:54:10;;;;;;;1.27;1.00;;;;;;;;;;5050845;28;20433;-80
2022/06/03 09:56:39;;;;;;;3.57;1.40;;;;;;;;;;5050858;28;20962;-82
2022/06/03 09:59:06;;;;;;;2.93;1.10;;;;;;;;;;5050885;28;20456;-82
2022/06/03 10:01:33;;;;;;;1.50;1.30;;;;;;;;;;5033513;28;20493;-81
2022/06/03 10:04:01;;;;;;;1.20;1.00;;;;;;;;;;5031667;28;20940;-83
2022/06/03 10:06:46;;;;;;;1.80;1.30;;;;;;;;;;5032130;28;20516;-82
2022/06/03 10:14:45;;;;;;;1.40;1.17;;;;;;;;;;5050692;28;20448;-80
2022/06/03 10:17:12;;;;;;;1.57;1.27;;;;;;;;;;5046232;28;20453;-82
2022/06/03 10:19:39;;;;;;;1.67;1.10;;;;;;;;;;5046254;28;20963;-81
2022/06/03 10:22:09;;;;;;;2.77;1.20;;;;;;;;;;5031268;28;20805;-81
2022/06/03 10:24:37;;;;;;;1.30;0.97;;;;;;;;;;5046926;28;20487;-80
2022/06/03 10:27:06;;;;;;;1.20;1.00;;;;;;;;;;5039764;28;20460;-81
2022/06/03 10:29:46;;;;;;;2.10;1.20;;;;;;;;;;5040639;28;20479;-81
2022/06/03 10:32:16;;;;;;;1.25;1.00;;;;;;;;;;5049304;28;20462;-83
2022/06/03 10:34:44;;;;;;;1.73;1.30;;;;;;;;;;5046949;28;20223;-82
2022/06/03 10:37:12;;;;;;;1.55;1.02;;;;;;;;;;5051859;28;20437;-81
2022/06/03 10:39:43;;;;;;;1.47;1.00;;;;;;;;;;5054963;28;20663;-81
2022/06/03 10:42:13;;;;;;;2.58;1.13;;;;;;;;;;5050236;28;20752;-82
2022/06/03 10:44:44;;;;;;;1.30;0.97;;;;;;;;;;5051868;28;20566;-80
2022/06/03 10:47:14;;;;;;;1.48;1.15;;;;;;;;;;5054926;28;20445;-81
2022/06/03 10:49:53;;;;;;;1.30;1.10;;;;;;;;;;5052634;28;20226;-80
2022/06/03 11:01:09;;;;;;;1.38;1.27;;;;;;;;;;5044558;28;20219;-82
2022/06/03 11:03:37;;;;;;;1.37;1.23;;;;;;;;;;5049925;28;20200;-80
2022/06/03 11:06:07;;;;;;;1.38;1.27;;;;;;;;;;5040971;28;20466;-81
2022/06/03 11:08:47;;;;;;;1.30;1.20;;;;;;;;;;5050915;28;20658;-80
2022/06/03 11:11:15;;;;;;;1.33;0.87;;;;;;;;;;5051450;28;21017;-80
2022/06/03 11:13:42;;;;;;;1.63;1.03;;;;;;;;;;5046807;28;20472;-81
2022/06/03 11:16:14;;;;;;;1.50;1.27;;;;;;;;;;5050233;28;20460;-82
2022/06/03 11:18:41;;;;;;;2.70;1.10;;;;;;;;;;5054681;28;20460;-82
2022/06/03 11:21:17;;;;;;;1.10;0.90;;;;;;;;;;5050491;28;20791;-81
2022/06/03 11:23:45;;;;;;;1.50;1.05;;;;;;;;;;5052287;28;20856;-81
2022/06/03 11:26:12;;;;;;;1.17;1.08;;;;;;;;;;5047337;28;20590;-80
2022/06/03 11:28:42;;;;;;;1.60;1.20;;;;;;;;;;5042416;28;20205;-81
2022/06/03 11:31:12;;;;;;;1.30;1.17;;;;;;;;;;5047557;28;20579;-83
2022/06/03 11:33:42;;;;;;;1.63;1.20;;;;;;;;;;5046095;28;20475;-80
2022/06/03 11:36:12;;;;;;;1.67;1.00;;;;;;;;;;5043812;28;20471;-83
2022/06/03 11:38:41;;;;;;;1.20;1.10;;;;;;;;;;5059013;28;20204;-83
2022/06/03 11:41:12;;;;;;;1.88;1.20;;;;;;;;;;5043396;28;20196;-81
2022/06/03 11:43:43;;;;;;;1.40;1.00;;;;;;;;;;5050862;28;20201;-82
2022/06/03 11:46:12;;;;;;;1.92;1.20;;;;;;;;;;5051422;28;20196;-83
2022/06/03 11:48:41;;;;;;;1.40;1.17;;;;;;;;;;5053617;28;20206;-83
2022/06/03 11:51:09;;;;;;;1.30;1.10;;;;;;;;;;5042920;28;20220;-82
2022/06/03 11:53:39;;;;;;;1.30;1.00;;;;;;;;;;5053742;28;20955;-81
2022/06/03 11:56:06;;;;;;;1.40;1.30;;;;;;;;;;5050997;28;20308;-82
2022/06/03 11:58:38;;;;;;;2.00;1.15;;;;;;;;;;5046340;28;20209;-81
2022/06/03 12:01:08;;;;;;;1.40;1.03;;;;;;;;;;5050818;28;20193;-83
2022/06/03 12:03:38;;;;;;;2.67;1.25;;;;;;;;;;5053272;28;20447;-81
2022/06/03 12:06:08;;;;;;;1.70;1.38;;;;;;;;;;5043619;28;20201;-81
2022/06/03 12:08:44;;;;;;;4.53;1.07;;;;;;;;;;5045453;28;20212;-83
2022/06/03 12:13:14;;;;;;;2.30;0.80;;;;;;;;;;5036730;28;20476;-81
2022/06/03 12:14:27;;;;;;;1.60;1.03;;;;;;;;;;5044634;28;20442;-81
2022/06/03 12:16:58;;;;;;;1.10;0.90;;;;;;;;;;5037424;28;20452;-82
2022/06/03 12:19:42;;;;;;;1.67;1.00;;;;;;;;;;5045182;28;20204;-82
2022/06/03 12:22:27;;;;;;;1.13;1.00;;;;;;;;;;5044791;28;20197;-81
2022/06/03 12:24:54;;;;;;;1.75;1.23;;;;;;;;;;5049835;28;20460;-81
2022/06/03 12:27:26;;;;;;;1.10;0.90;;;;;;;;;;5052107;28;20203;-82
2022/06/03 12:29:59;;;;;;;1.60;1.05;;;;;;;;;;5051098;28;20185;-80
2022/06/03 12:32:28;;;;;;;1.10;1.00;;;;;;;;;;5048717;28;20208;-80
2022/06/03 12:35:10;;;;;;;1.10;1.00;;;;;;;;;;5050704;28;20211;-81
2022/06/03 12:37:37;;;;;;;1.03;0.90;;;;;;;;;;5047746;28;20204;-81
2022/06/03 12:40:06;;;;;;;1.20;1.10;;;;;;;;;;5043745;28;20954;-80
2022/06/03 12:42:38;;;;;;;3.30;1.50;;;;;;;;;;5048167;28;20479;-80
2022/06/03 12:45:27;;;;;;;2.05;1.20;;;;;;;;;;5059940;28;20892;-80
2022/06/03 12:47:56;;;;;;;1.00;0.90;;;;;;;;;;5054425;28;20208;-82
2022/06/03 12:50:29;;;;;;;2.28;0.98;;;;;;;;;;5050199;28;20220;-80
2022/06/03 12:52:58;;;;;;;1.10;1.00;;;;;;;;;;5050220;28;20238;-80
2022/06/03 12:55:26;;;;;;;1.20;1.10;;;;;;;;;;5041586;28;20589;-81
2022/06/03 12:57:56;;;;;;;1.00;0.88;;;;;;;;;;5048590;28;20206;-80
2022/06/03 13:00:28;;;;;;;1.20;1.10;;;;;;;;;;5045329;28;20202;-80
2022/06/03 13:02:57;;;;;;;1.33;0.97;;;;;;;;;;5051616;28;20192;-81
2022/06/03 13:05:39;;;;;;;1.10;1.00;;;;;;;;;;5045273;28;20460;-80
2022/06/03 13:08:08;;;;;;;3.90;0.90;;;;;;;;;;5050035;28;20209;-81
2022/06/03 13:10:56;;;;;;;1.42;1.00;;;;;;;;;;5039985;28;20480;-80
2022/06/03 13:13:44;;;;;;;1.20;1.10;;;;;;;;;;5038404;28;20276;-81
2022/06/03 13:16:27;;;;;;;4.20;1.70;;;;;;;;;;5050654;28;20464;-80
2022/06/03 13:18:56;;;;;;;6.00;1.48;;;;;;;;;;5052350;28;20641;-82
2022/06/03 13:21:24;;;;;;;1.10;0.87;;;;;;;;;;5050481;28;20236;-81
2022/06/03 13:23:57;;;;;;;2.40;1.17;;;;;;;;;;5051757;28;20429;-80
2022/06/03 13:26:42;;;;;;;2.17;0.90;;;;;;;;;;5045961;28;20948;-80
2022/06/03 13:29:13;;;;;;;5.03;0.80;;;;;;;;;;5047012;28;20943;-80
2022/06/03 13:31:58;;;;;;;2.60;1.20;;;;;;;;;;5043979;28;20495;-80
2022/06/03 13:34:31;;;;;;;1.07;0.90;;;;;;;;;;5051446;28;20484;-80
2022/06/03 13:37:31;;;;;;;1.10;0.95;;;;;;;;;;5051011;28;20504;-81
2022/06/03 13:40:03;;;;;;;1.13;0.87;;;;;;;;;;4983848;28;20696;-81
2022/06/03 13:45:52;;;;;;;1.17;1.07;;;;;;;;;;5012485;28;20461;-81
2022/06/03 13:48:22;;;;;;;1.23;1.00;;;;;;;;;;5030650;28;20783;-81
2022/06/03 13:50:51;;;;;;;1.90;1.30;;;;;;;;;;5040298;28;20481;-80
2022/06/03 13:53:24;;;;;;;1.27;1.13;;;;;;;;;;5050047;28;20194;-81
2022/06/03 13:55:53;;;;;;;2.27;1.10;;;;;;;;;;5049795;28;20464;-80
2022/06/03 13:58:24;;;;;;;2.40;1.40;;;;;;;;;;5045008;28;20543;-80
2022/06/03 14:01:03;;;;;;;1.10;1.00;;;;;;;;;;5031228;28;20439;-80
2022/06/03 14:03:33;;;;;;;4.67;1.13;;;;;;;;;;5031690;28;20905;-81
2022/06/03 14:06:04;;;;;;;2.07;1.50;;;;;;;;;;5034223;28;20958;-80
2022/06/03 14:08:34;;;;;;;1.33;1.00;;;;;;;;;;5036315;28;20493;-81
2022/06/03 14:11:06;;;;;;;1.30;1.20;;;;;;;;;;5039040;28;20516;-81
2022/06/03 14:13:35;;;;;;;1.20;1.10;;;;;;;;;;5052914;28;20948;-81
2022/06/03 14:16:06;;;;;;;1.90;1.60;;;;;;;;;;5045880;28;20474;-80
2022/06/03 14:18:46;;;;;;;2.33;1.40;;;;;;;;;;5046738;28;20666;-81
2022/06/03 14:21:16;;;;;;;2.60;1.73;;;;;;;;;;5035324;28;20504;-82
2022/06/03 14:23:45;;;;;;;1.77;1.33;;;;;;;;;;5044422;28;20464;-81
2022/06/03 14:26:15;;;;;;;2.05;1.40;;;;;;;;;;5046330;28;20595;-82
2022/06/03 14:28:47;;;;;;;1.20;1.10;;;;;;;;;;5050889;28;20206;-80
2022/06/03 14:31:16;;;;;;;1.40;1.30;;;;;;;;;;5044644;28;20470;-81
2022/06/03 14:33:46;;;;;;;2.30;1.20;;;;;;;;;;5054862;28;20201;-80
2022/06/03 14:36:18;;;;;;;1.70;1.00;;;;;;;;;;5047283;28;20468;-80
2022/06/03 14:38:47;;;;;;;1.50;1.30;;;;;;;;;;5053141;28;20456;-81
2022/06/03 14:41:17;;;;;;;1.37;1.10;;;;;;;;;;5044341;28;20460;-80
2022/06/03 14:43:45;;;;;;;1.90;1.20;;;;;;;;;;5043623;28;20469;-81
2022/06/03 14:46:15;;;;;;;1.40;1.30;;;;;;;;;;5040624;28;20464;-81
2022/06/03 14:48:45;;;;;;;1.27;1.17;;;;;;;;;;5055005;28;20440;-81
2022/06/03 14:51:16;;;;;;;1.60;1.33;;;;;;;;;;5044138;28;20560;-81
2022/06/03 14:53:46;;;;;;;3.67;1.50;;;;;;;;;;5051408;28;20215;-81
2022/06/03 14:56:31;;;;;;;1.30;1.20;;;;;;;;;;5052429;28;20495;-80
2022/06/03 14:59:00;;;;;;;1.13;0.93;;;;;;;;;;5039929;28;20547;-81
2022/06/03 15:01:40;;;;;;;1.73;1.00;;;;;;;;;;5048598;28;20457;-81
2022/06/03 15:04:09;;;;;;;1.37;1.20;;;;;;;;;;5044371;28;20471;-82
2022/06/03 15:06:39;;;;;;;2.03;1.07;;;;;;;;;;5046034;28;20504;-82
2022/06/03 15:09:09;;;;;;;1.45;1.35;;;;;;;;;;5043511;28;20460;-82
2022/06/03 15:11:38;;;;;;;1.60;1.30;;;;;;;;;;5048659;28;20223;-84
2022/06/03 15:14:08;;;;;;;1.67;1.57;;;;;;;;;;5044213;28;20465;-82
2022/06/03 15:16:46;;;;;;;1.67;1.30;;;;;;;;;;5045281;28;20872;-84
2022/06/03 15:19:13;;;;;;;1.50;1.40;;;;;;;;;;5041630;28;20464;-83
2022/06/03 15:21:41;;;;;;;1.93;1.50;;;;;;;;;;5051031;28;20836;-83
2022/06/03 15:24:09;;;;;;;1.30;1.20;;;;;;;;;;5047021;28;20798;-82
2022/06/03 15:26:38;;;;;;;1.37;1.20;;;;;;;;;;5053607;28;20452;-82
2022/06/03 15:29:07;;;;;;;1.93;1.20;;;;;;;;;;5044085;28;20468;-84
2022/06/03 15:31:37;;;;;;;1.47;1.37;;;;;;;;;;5035937;28;20508;-83
2022/06/03 15:34:06;;;;;;;1.73;1.30;;;;;;;;;;5037983;28;20953;-82
2022/06/03 15:36:39;;;;;;;1.50;1.40;;;;;;;;;;5047526;28;20477;-82
2022/06/03 15:39:15;;;;;;;2.90;1.40;;;;;;;;;;5051914;28;20825;-82
2022/06/03 15:41:43;;;;;;;1.50;1.40;;;;;;;;;;5053264;28;20514;-82
2022/06/03 15:44:10;;;;;;;1.40;1.30;;;;;;;;;;5045610;28;20461;-81
2022/06/03 15:46:39;;;;;;;2.03;1.30;;;;;;;;;;5042771;28;20468;-82
2022/06/03 15:49:07;;;;;;;1.50;1.20;;;;;;;;;;5056177;28;20964;-82
2022/06/03 15:51:39;;;;;;;2.20;1.57;;;;;;;;;;5045362;28;20481;-82
2022/06/03 15:54:07;;;;;;;1.50;1.40;;;;;;;;;;5040605;28;20473;-82
2022/06/03 15:56:42;;;;;;;1.53;1.30;;;;;;;;;;5040646;28;20458;-83
2022/06/03 15:59:13;;;;;;;2.30;1.30;;;;;;;;;;5043824;28;20532;-83
2022/06/03 16:01:44;;;;;;;1.40;1.30;;;;;;;;;;5052882;28;20449;-82
2022/06/03 16:04:20;;;;;;;2.70;1.70;;;;;;;;;;5051720;28;20461;-83
2022/06/03 16:06:54;;;;;;;2.13;1.23;;;;;;;;;;5051443;28;20468;-82